sensor_id;sensor_type;location;lat;lon;timestamp;P1;durP1;ratioP1;P2;durP2;ratioP2
10645;SDS011;5371;49.782;9.932;2022-09-14T00:01:05;4.78;;;4.10;;
10645;SDS011;5371;49.782;9.932;2022-09-14T00:03:33;7.70;;;4.53;;
10645;SDS011;5371;49.782;9.932;2022-09-14T00:06:03;6.53;;;4.43;;
10645;SDS011;5371;49.782;9.932;2022-09-14T00:08:33;5.78;;;4.72;;
10645;SDS011;5371;49.782;9.932;2022-09-14T00:11:03;6.20;;;4.65;;
10645;SDS011;5371;49.782;9.932;2022-09-14T00:13:31;4.88;;;4.40;;
10645;SDS011;5371;49.782;9.932;2022-09-14T00:16:01;6.88;;;4.55;;
10645;SDS011;5371;49.782;9.932;2022-09-14T00:18:29;5.78;;;4.43;;
10645;SDS011;5371;49.782;9.932;2022-09-14T00:20:59;5.45;;;4.43;;
10645;SDS011;5371;49.782;9.932;2022-09-14T00:23:27;5.03;;;4.50;;
10645;SDS011;5371;49.782;9.932;2022-09-14T00:26:00;5.07;;;4.40;;
10645;SDS011;5371;49.782;9.932;2022-09-14T00:28:28;9.77;;;4.88;;
10645;SDS011;5371;49.782;9.932;2022-09-14T00:30:55;5.82;;;4.68;;
10645;SDS011;5371;49.782;9.932;2022-09-14T00:33:22;8.55;;;4.95;;
10645;SDS011;5371;49.782;9.932;2022-09-14T00:35:49;5.45;;;4.95;;
10645;SDS011;5371;49.782;9.932;2022-09-14T00:38:18;6.85;;;4.90;;
10645;SDS011;5371;49.782;9.932;2022-09-14T00:40:56;5.95;;;4.80;;
10645;SDS011;5371;49.782;9.932;2022-09-14T00:43:23;5.72;;;4.82;;
10645;SDS011;5371;49.782;9.932;2022-09-14T00:45:51;6.90;;;4.72;;
10645;SDS011;5371;49.782;9.932;2022-09-14T00:48:18;5.85;;;4.60;;
10645;SDS011;5371;49.782;9.932;2022-09-14T00:50:48;8.02;;;4.50;;
10645;SDS011;5371;49.782;9.932;2022-09-14T00:53:15;8.15;;;4.53;;
10645;SDS011;5371;49.782;9.932;2022-09-14T00:55:42;6.20;;;4.72;;
10645;SDS011;5371;49.782;9.932;2022-09-14T00:58:11;6.53;;;5.03;;
10645;SDS011;5371;49.782;9.932;2022-09-14T01:00:38;8.85;;;4.90;;
10645;SDS011;5371;49.782;9.932;2022-09-14T01:03:04;5.53;;;4.78;;
10645;SDS011;5371;49.782;9.932;2022-09-14T01:05:34;5.28;;;4.43;;
10645;SDS011;5371;49.782;9.932;2022-09-14T01:08:13;5.75;;;4.97;;
10645;SDS011;5371;49.782;9.932;2022-09-14T01:13:43;7.90;;;5.18;;
10645;SDS011;5371;49.782;9.932;2022-09-14T01:16:19;5.43;;;4.93;;
10645;SDS011;5371;49.782;9.932;2022-09-14T01:18:55;8.15;;;5.28;;
10645;SDS011;5371;49.782;9.932;2022-09-14T01:21:25;8.30;;;5.50;;
10645;SDS011;5371;49.782;9.932;2022-09-14T01:23:59;6.75;;;5.20;;
10645;SDS011;5371;49.782;9.932;2022-09-14T01:29:27;6.15;;;5.18;;
10645;SDS011;5371;49.782;9.932;2022-09-14T01:31:59;7.28;;;5.72;;
10645;SDS011;5371;49.782;9.932;2022-09-14T01:34:31;8.15;;;5.47;;
10645;SDS011;5371;49.782;9.932;2022-09-14T01:37:02;8.80;;;5.53;;
10645;SDS011;5371;49.782;9.932;2022-09-14T01:39:38;6.60;;;6.00;;
10645;SDS011;5371;49.782;9.932;2022-09-14T01:42:08;8.40;;;5.57;;
10645;SDS011;5371;49.782;9.932;2022-09-14T01:44:39;6.00;;;5.40;;
10645;SDS011;5371;49.782;9.932;2022-09-14T01:47:11;6.45;;;5.47;;
10645;SDS011;5371;49.782;9.932;2022-09-14T01:49:47;6.32;;;5.60;;
10645;SDS011;5371;49.782;9.932;2022-09-14T01:52:19;7.43;;;5.80;;
10645;SDS011;5371;49.782;9.932;2022-09-14T01:54:50;9.75;;;6.15;;
10645;SDS011;5371;49.782;9.932;2022-09-14T01:57:21;8.95;;;6.05;;
10645;SDS011;5371;49.782;9.932;2022-09-14T01:59:54;8.63;;;6.90;;
10645;SDS011;5371;49.782;9.932;2022-09-14T02:02:26;10.90;;;6.57;;
10645;SDS011;5371;49.782;9.932;2022-09-14T02:04:58;10.18;;;6.65;;
10645;SDS011;5371;49.782;9.932;2022-09-14T02:07:28;7.40;;;6.68;;
10645;SDS011;5371;49.782;9.932;2022-09-14T02:09:55;10.75;;;7.05;;
10645;SDS011;5371;49.782;9.932;2022-09-14T02:12:23;7.43;;;6.72;;
10645;SDS011;5371;49.782;9.932;2022-09-14T02:14:51;8.43;;;7.13;;
10645;SDS011;5371;49.782;9.932;2022-09-14T02:17:21;8.05;;;7.20;;
10645;SDS011;5371;49.782;9.932;2022-09-14T02:19:51;8.63;;;7.72;;
10645;SDS011;5371;49.782;9.932;2022-09-14T02:22:21;10.35;;;7.82;;
10645;SDS011;5371;49.782;9.932;2022-09-14T02:24:48;8.18;;;7.38;;
10645;SDS011;5371;49.782;9.932;2022-09-14T02:27:15;8.77;;;7.50;;
10645;SDS011;5371;49.782;9.932;2022-09-14T02:29:42;10.65;;;8.45;;
10645;SDS011;5371;49.782;9.932;2022-09-14T02:32:14;11.98;;;10.73;;
10645;SDS011;5371;49.782;9.932;2022-09-14T02:34:51;12.38;;;10.98;;
10645;SDS011;5371;49.782;9.932;2022-09-14T02:37:25;13.15;;;11.13;;
10645;SDS011;5371;49.782;9.932;2022-09-14T02:39:57;13.13;;;11.73;;
10645;SDS011;5371;49.782;9.932;2022-09-14T02:42:33;12.98;;;10.63;;
10645;SDS011;5371;49.782;9.932;2022-09-14T02:45:06;13.18;;;11.20;;
10645;SDS011;5371;49.782;9.932;2022-09-14T02:47:46;11.98;;;10.23;;
10645;SDS011;5371;49.782;9.932;2022-09-14T02:50:21;12.60;;;10.30;;
10645;SDS011;5371;49.782;9.932;2022-09-14T02:52:56;10.13;;;8.00;;
10645;SDS011;5371;49.782;9.932;2022-09-14T02:55:27;9.90;;;8.90;;
10645;SDS011;5371;49.782;9.932;2022-09-14T02:57:58;10.38;;;9.27;;
10645;SDS011;5371;49.782;9.932;2022-09-14T03:00:27;11.65;;;9.23;;
10645;SDS011;5371;49.782;9.932;2022-09-14T03:02:55;12.45;;;9.27;;
10645;SDS011;5371;49.782;9.932;2022-09-14T03:05:24;13.23;;;9.85;;
10645;SDS011;5371;49.782;9.932;2022-09-14T03:07:51;11.88;;;9.70;;
10645;SDS011;5371;49.782;9.932;2022-09-14T03:10:17;11.88;;;9.50;;
10645;SDS011;5371;49.782;9.932;2022-09-14T03:12:45;14.70;;;10.75;;
10645;SDS011;5371;49.782;9.932;2022-09-14T03:15:11;13.73;;;10.30;;
10645;SDS011;5371;49.782;9.932;2022-09-14T03:17:38;13.95;;;10.70;;
10645;SDS011;5371;49.782;9.932;2022-09-14T03:20:05;16.50;;;11.07;;
10645;SDS011;5371;49.782;9.932;2022-09-14T03:22:34;15.02;;;11.95;;
10645;SDS011;5371;49.782;9.932;2022-09-14T03:25:01;15.25;;;11.93;;
10645;SDS011;5371;49.782;9.932;2022-09-14T03:27:28;16.17;;;12.27;;
10645;SDS011;5371;49.782;9.932;2022-09-14T03:29:54;15.90;;;13.52;;
10645;SDS011;5371;49.782;9.932;2022-09-14T03:32:21;18.60;;;13.23;;
10645;SDS011;5371;49.782;9.932;2022-09-14T03:34:48;15.73;;;13.60;;
10645;SDS011;5371;49.782;9.932;2022-09-14T03:37:15;17.08;;;14.20;;
10645;SDS011;5371;49.782;9.932;2022-09-14T03:39:43;17.60;;;13.05;;
10645;SDS011;5371;49.782;9.932;2022-09-14T03:42:10;15.48;;;12.50;;
10645;SDS011;5371;49.782;9.932;2022-09-14T03:44:37;19.05;;;12.10;;
10645;SDS011;5371;49.782;9.932;2022-09-14T03:47:04;18.90;;;12.13;;
10645;SDS011;5371;49.782;9.932;2022-09-14T03:49:31;15.90;;;12.05;;
10645;SDS011;5371;49.782;9.932;2022-09-14T03:51:58;16.30;;;12.75;;
10645;SDS011;5371;49.782;9.932;2022-09-14T03:54:25;15.95;;;12.73;;
10645;SDS011;5371;49.782;9.932;2022-09-14T03:56:53;16.92;;;12.98;;
10645;SDS011;5371;49.782;9.932;2022-09-14T03:59:20;14.77;;;12.50;;
10645;SDS011;5371;49.782;9.932;2022-09-14T04:01:47;20.13;;;13.68;;
10645;SDS011;5371;49.782;9.932;2022-09-14T04:04:14;18.55;;;13.43;;
10645;SDS011;5371;49.782;9.932;2022-09-14T04:06:41;19.00;;;13.30;;
10645;SDS011;5371;49.782;9.932;2022-09-14T04:09:08;16.38;;;13.75;;
10645;SDS011;5371;49.782;9.932;2022-09-14T04:11:35;18.70;;;13.75;;
10645;SDS011;5371;49.782;9.932;2022-09-14T04:14:03;17.90;;;12.70;;
10645;SDS011;5371;49.782;9.932;2022-09-14T04:16:32;17.20;;;13.57;;
10645;SDS011;5371;49.782;9.932;2022-09-14T04:18:59;15.38;;;12.70;;
10645;SDS011;5371;49.782;9.932;2022-09-14T04:21:26;14.73;;;12.75;;
10645;SDS011;5371;49.782;9.932;2022-09-14T04:23:53;15.30;;;12.68;;
10645;SDS011;5371;49.782;9.932;2022-09-14T04:26:22;16.33;;;12.18;;
10645;SDS011;5371;49.782;9.932;2022-09-14T04:28:51;16.73;;;12.77;;
10645;SDS011;5371;49.782;9.932;2022-09-14T04:31:19;15.23;;;13.02;;
10645;SDS011;5371;49.782;9.932;2022-09-14T04:33:46;16.20;;;13.15;;
10645;SDS011;5371;49.782;9.932;2022-09-14T04:36:15;14.85;;;12.38;;
10645;SDS011;5371;49.782;9.932;2022-09-14T04:38:44;15.63;;;12.75;;
10645;SDS011;5371;49.782;9.932;2022-09-14T04:41:12;14.60;;;13.00;;
10645;SDS011;5371;49.782;9.932;2022-09-14T04:43:40;16.38;;;13.40;;
10645;SDS011;5371;49.782;9.932;2022-09-14T04:46:09;17.67;;;12.80;;
10645;SDS011;5371;49.782;9.932;2022-09-14T04:48:39;15.35;;;12.73;;
10645;SDS011;5371;49.782;9.932;2022-09-14T04:51:07;18.00;;;13.75;;
10645;SDS011;5371;49.782;9.932;2022-09-14T04:53:36;16.08;;;13.15;;
10645;SDS011;5371;49.782;9.932;2022-09-14T04:56:04;17.35;;;13.57;;
10645;SDS011;5371;49.782;9.932;2022-09-14T04:58:32;17.50;;;13.38;;
10645;SDS011;5371;49.782;9.932;2022-09-14T05:01:00;17.02;;;13.88;;
10645;SDS011;5371;49.782;9.932;2022-09-14T05:03:27;15.82;;;13.77;;
10645;SDS011;5371;49.782;9.932;2022-09-14T05:05:59;19.20;;;14.32;;
10645;SDS011;5371;49.782;9.932;2022-09-14T05:08:27;15.27;;;13.60;;
10645;SDS011;5371;49.782;9.932;2022-09-14T05:10:54;16.65;;;13.63;;
10645;SDS011;5371;49.782;9.932;2022-09-14T05:13:21;16.75;;;13.73;;
10645;SDS011;5371;49.782;9.932;2022-09-14T05:15:48;18.33;;;13.45;;
10645;SDS011;5371;49.782;9.932;2022-09-14T05:18:15;20.13;;;14.35;;
10645;SDS011;5371;49.782;9.932;2022-09-14T05:20:42;18.15;;;14.00;;
10645;SDS011;5371;49.782;9.932;2022-09-14T05:23:11;21.10;;;16.30;;
10645;SDS011;5371;49.782;9.932;2022-09-14T05:25:38;22.80;;;16.40;;
10645;SDS011;5371;49.782;9.932;2022-09-14T05:28:05;19.95;;;15.18;;
10645;SDS011;5371;49.782;9.932;2022-09-14T05:30:31;21.48;;;16.08;;
10645;SDS011;5371;49.782;9.932;2022-09-14T05:32:59;19.73;;;15.15;;
10645;SDS011;5371;49.782;9.932;2022-09-14T05:35:25;20.40;;;15.35;;
10645;SDS011;5371;49.782;9.932;2022-09-14T05:37:52;21.85;;;15.23;;
10645;SDS011;5371;49.782;9.932;2022-09-14T05:40:20;20.80;;;15.68;;
10645;SDS011;5371;49.782;9.932;2022-09-14T05:42:47;20.20;;;15.05;;
10645;SDS011;5371;49.782;9.932;2022-09-14T05:45:14;21.23;;;15.38;;
10645;SDS011;5371;49.782;9.932;2022-09-14T05:47:41;23.02;;;16.27;;
10645;SDS011;5371;49.782;9.932;2022-09-14T05:50:08;20.98;;;15.60;;
10645;SDS011;5371;49.782;9.932;2022-09-14T05:52:35;20.33;;;15.65;;
10645;SDS011;5371;49.782;9.932;2022-09-14T05:55:03;21.05;;;15.18;;
10645;SDS011;5371;49.782;9.932;2022-09-14T05:57:32;18.48;;;14.88;;
10645;SDS011;5371;49.782;9.932;2022-09-14T05:59:59;21.45;;;15.07;;
10645;SDS011;5371;49.782;9.932;2022-09-14T06:02:26;20.30;;;14.63;;
10645;SDS011;5371;49.782;9.932;2022-09-14T06:04:53;18.58;;;14.73;;
10645;SDS011;5371;49.782;9.932;2022-09-14T06:07:22;19.17;;;13.55;;
10645;SDS011;5371;49.782;9.932;2022-09-14T06:09:48;16.83;;;13.98;;
10645;SDS011;5371;49.782;9.932;2022-09-14T06:12:15;19.90;;;13.88;;
10645;SDS011;5371;49.782;9.932;2022-09-14T06:14:44;16.70;;;13.35;;
10645;SDS011;5371;49.782;9.932;2022-09-14T06:17:11;16.55;;;12.88;;
10645;SDS011;5371;49.782;9.932;2022-09-14T06:19:38;14.88;;;11.95;;
10645;SDS011;5371;49.782;9.932;2022-09-14T06:22:04;14.88;;;12.25;;
10645;SDS011;5371;49.782;9.932;2022-09-14T06:24:31;17.88;;;12.80;;
10645;SDS011;5371;49.782;9.932;2022-09-14T06:27:00;15.98;;;11.82;;
10645;SDS011;5371;49.782;9.932;2022-09-14T06:29:26;15.35;;;12.20;;
10645;SDS011;5371;49.782;9.932;2022-09-14T06:31:55;14.23;;;11.70;;
10645;SDS011;5371;49.782;9.932;2022-09-14T06:34:22;16.48;;;12.50;;
10645;SDS011;5371;49.782;9.932;2022-09-14T06:36:49;15.52;;;12.00;;
10645;SDS011;5371;49.782;9.932;2022-09-14T06:39:16;14.93;;;12.18;;
10645;SDS011;5371;49.782;9.932;2022-09-14T06:41:43;20.60;;;12.68;;
10645;SDS011;5371;49.782;9.932;2022-09-14T06:44:17;17.60;;;13.73;;
10645;SDS011;5371;49.782;9.932;2022-09-14T06:46:44;17.20;;;13.57;;
10645;SDS011;5371;49.782;9.932;2022-09-14T06:49:13;17.42;;;13.93;;
10645;SDS011;5371;49.782;9.932;2022-09-14T06:51:45;16.92;;;13.75;;
10645;SDS011;5371;49.782;9.932;2022-09-14T06:54:14;16.13;;;13.88;;
10645;SDS011;5371;49.782;9.932;2022-09-14T06:56:43;17.25;;;14.07;;
10645;SDS011;5371;49.782;9.932;2022-09-14T06:59:11;17.05;;;13.85;;
10645;SDS011;5371;49.782;9.932;2022-09-14T07:01:40;17.67;;;13.43;;
10645;SDS011;5371;49.782;9.932;2022-09-14T07:04:07;24.35;;;16.70;;
10645;SDS011;5371;49.782;9.932;2022-09-14T07:06:43;19.52;;;14.48;;
10645;SDS011;5371;49.782;9.932;2022-09-14T07:09:13;17.90;;;12.48;;
10645;SDS011;5371;49.782;9.932;2022-09-14T07:11:41;16.92;;;12.65;;
10645;SDS011;5371;49.782;9.932;2022-09-14T07:14:09;15.13;;;11.63;;
10645;SDS011;5371;49.782;9.932;2022-09-14T07:16:38;15.68;;;12.52;;
10645;SDS011;5371;49.782;9.932;2022-09-14T07:19:08;17.75;;;13.15;;
10645;SDS011;5371;49.782;9.932;2022-09-14T07:21:40;19.33;;;12.75;;
10645;SDS011;5371;49.782;9.932;2022-09-14T07:24:07;18.27;;;13.30;;
10645;SDS011;5371;49.782;9.932;2022-09-14T07:26:36;18.67;;;12.95;;
10645;SDS011;5371;49.782;9.932;2022-09-14T07:29:05;17.48;;;12.82;;
10645;SDS011;5371;49.782;9.932;2022-09-14T07:31:36;18.70;;;12.80;;
10645;SDS011;5371;49.782;9.932;2022-09-14T07:34:06;15.13;;;12.18;;
10645;SDS011;5371;49.782;9.932;2022-09-14T07:36:34;17.20;;;13.45;;
10645;SDS011;5371;49.782;9.932;2022-09-14T07:39:04;19.23;;;14.02;;
10645;SDS011;5371;49.782;9.932;2022-09-14T07:41:32;17.92;;;13.75;;
10645;SDS011;5371;49.782;9.932;2022-09-14T07:44:01;16.55;;;13.68;;
10645;SDS011;5371;49.782;9.932;2022-09-14T07:46:30;20.17;;;13.20;;
10645;SDS011;5371;49.782;9.932;2022-09-14T07:48:58;16.35;;;13.43;;
10645;SDS011;5371;49.782;9.932;2022-09-14T07:51:28;16.10;;;12.95;;
10645;SDS011;5371;49.782;9.932;2022-09-14T07:53:56;17.75;;;12.90;;
10645;SDS011;5371;49.782;9.932;2022-09-14T07:56:25;15.43;;;11.85;;
10645;SDS011;5371;49.782;9.932;2022-09-14T07:58:53;18.67;;;13.43;;
10645;SDS011;5371;49.782;9.932;2022-09-14T08:01:21;17.58;;;12.10;;
10645;SDS011;5371;49.782;9.932;2022-09-14T08:03:48;13.75;;;10.85;;
10645;SDS011;5371;49.782;9.932;2022-09-14T08:06:16;14.25;;;11.27;;
10645;SDS011;5371;49.782;9.932;2022-09-14T08:08:45;11.85;;;9.98;;
10645;SDS011;5371;49.782;9.932;2022-09-14T08:11:14;12.32;;;9.70;;
10645;SDS011;5371;49.782;9.932;2022-09-14T08:13:44;12.88;;;9.57;;
10645;SDS011;5371;49.782;9.932;2022-09-14T08:16:15;12.80;;;9.10;;
10645;SDS011;5371;49.782;9.932;2022-09-14T08:18:44;12.88;;;10.07;;
10645;SDS011;5371;49.782;9.932;2022-09-14T08:21:12;13.18;;;9.52;;
10645;SDS011;5371;49.782;9.932;2022-09-14T08:23:43;12.43;;;9.48;;
10645;SDS011;5371;49.782;9.932;2022-09-14T08:26:11;11.48;;;8.95;;
10645;SDS011;5371;49.782;9.932;2022-09-14T08:28:39;11.07;;;8.95;;
10645;SDS011;5371;49.782;9.932;2022-09-14T08:31:10;11.57;;;9.02;;
10645;SDS011;5371;49.782;9.932;2022-09-14T08:33:39;9.50;;;8.60;;
10645;SDS011;5371;49.782;9.932;2022-09-14T08:36:10;11.93;;;8.10;;
10645;SDS011;5371;49.782;9.932;2022-09-14T08:38:40;9.70;;;8.40;;
10645;SDS011;5371;49.782;9.932;2022-09-14T08:41:17;10.32;;;8.00;;
10645;SDS011;5371;49.782;9.932;2022-09-14T08:43:54;11.68;;;8.90;;
10645;SDS011;5371;49.782;9.932;2022-09-14T08:46:28;10.27;;;8.35;;
10645;SDS011;5371;49.782;9.932;2022-09-14T08:48:58;11.25;;;8.02;;
10645;SDS011;5371;49.782;9.932;2022-09-14T08:51:26;8.60;;;6.50;;
10645;SDS011;5371;49.782;9.932;2022-09-14T08:53:55;6.53;;;5.93;;
10645;SDS011;5371;49.782;9.932;2022-09-14T08:56:24;6.93;;;5.80;;
10645;SDS011;5371;49.782;9.932;2022-09-14T08:58:59;9.40;;;6.40;;
10645;SDS011;5371;49.782;9.932;2022-09-14T09:01:45;7.10;;;5.28;;
10645;SDS011;5371;49.782;9.932;2022-09-14T09:04:22;6.18;;;5.30;;
10645;SDS011;5371;49.782;9.932;2022-09-14T09:06:59;8.70;;;5.70;;
10645;SDS011;5371;49.782;9.932;2022-09-14T09:09:42;8.45;;;5.97;;
10645;SDS011;5371;49.782;9.932;2022-09-14T09:12:12;6.57;;;5.90;;
10645;SDS011;5371;49.782;9.932;2022-09-14T09:14:43;7.13;;;6.07;;
10645;SDS011;5371;49.782;9.932;2022-09-14T09:17:19;6.53;;;5.90;;
10645;SDS011;5371;49.782;9.932;2022-09-14T09:19:57;5.07;;;4.57;;
10645;SDS011;5371;49.782;9.932;2022-09-14T09:22:30;5.07;;;4.20;;
10645;SDS011;5371;49.782;9.932;2022-09-14T09:25:03;4.30;;;3.90;;
10645;SDS011;5371;49.782;9.932;2022-09-14T09:27:36;4.88;;;4.20;;
10645;SDS011;5371;49.782;9.932;2022-09-14T09:30:03;4.80;;;4.05;;
10645;SDS011;5371;49.782;9.932;2022-09-14T09:32:33;4.63;;;4.22;;
10645;SDS011;5371;49.782;9.932;2022-09-14T09:35:19;3.60;;;3.30;;
10645;SDS011;5371;49.782;9.932;2022-09-14T09:38:06;4.57;;;3.38;;
10645;SDS011;5371;49.782;9.932;2022-09-14T09:40:42;4.57;;;3.75;;
10645;SDS011;5371;49.782;9.932;2022-09-14T09:43:13;4.43;;;3.67;;
10645;SDS011;5371;49.782;9.932;2022-09-14T09:45:46;4.25;;;3.53;;
10645;SDS011;5371;49.782;9.932;2022-09-14T09:48:19;4.22;;;3.80;;
10645;SDS011;5371;49.782;9.932;2022-09-14T09:50:49;3.72;;;3.42;;
10645;SDS011;5371;49.782;9.932;2022-09-14T09:53:21;3.30;;;3.00;;
10645;SDS011;5371;49.782;9.932;2022-09-14T09:55:49;5.32;;;3.50;;
10645;SDS011;5371;49.782;9.932;2022-09-14T10:01:03;4.05;;;3.67;;
10645;SDS011;5371;49.782;9.932;2022-09-14T10:03:35;5.82;;;3.70;;
10645;SDS011;5371;49.782;9.932;2022-09-14T10:06:06;4.93;;;3.83;;
10645;SDS011;5371;49.782;9.932;2022-09-14T10:08:40;4.63;;;3.67;;
10645;SDS011;5371;49.782;9.932;2022-09-14T10:13:55;4.18;;;3.65;;
10645;SDS011;5371;49.782;9.932;2022-09-14T10:16:23;3.42;;;3.13;;
10645;SDS011;5371;49.782;9.932;2022-09-14T10:18:55;3.70;;;3.40;;
10645;SDS011;5371;49.782;9.932;2022-09-14T10:21:23;5.38;;;3.33;;
10645;SDS011;5371;49.782;9.932;2022-09-14T10:24:00;3.30;;;3.00;;
10645;SDS011;5371;49.782;9.932;2022-09-14T10:26:31;3.50;;;3.20;;
10645;SDS011;5371;49.782;9.932;2022-09-14T10:29:19;3.53;;;3.08;;
10645;SDS011;5371;49.782;9.932;2022-09-14T10:31:55;4.28;;;3.00;;
10645;SDS011;5371;49.782;9.932;2022-09-14T10:34:28;3.25;;;2.83;;
10645;SDS011;5371;49.782;9.932;2022-09-14T10:36:57;3.33;;;3.03;;
10645;SDS011;5371;49.782;9.932;2022-09-14T10:39:38;2.80;;;2.60;;
10645;SDS011;5371;49.782;9.932;2022-09-14T10:42:13;3.15;;;2.85;;
10645;SDS011;5371;49.782;9.932;2022-09-14T10:44:52;4.72;;;2.78;;
10645;SDS011;5371;49.782;9.932;2022-09-14T10:47:39;4.85;;;2.90;;
10645;SDS011;5371;49.782;9.932;2022-09-14T10:50:31;3.40;;;3.10;;
10645;SDS011;5371;49.782;9.932;2022-09-14T10:53:09;3.38;;;3.08;;
10645;SDS011;5371;49.782;9.932;2022-09-14T10:55:47;3.22;;;3.00;;
10645;SDS011;5371;49.782;9.932;2022-09-14T10:58:24;3.78;;;2.85;;
10645;SDS011;5371;49.782;9.932;2022-09-14T11:01:03;4.07;;;3.00;;
10645;SDS011;5371;49.782;9.932;2022-09-14T11:03:44;3.78;;;3.05;;
10645;SDS011;5371;49.782;9.932;2022-09-14T11:06:25;3.50;;;3.20;;
10645;SDS011;5371;49.782;9.932;2022-09-14T11:09:03;3.08;;;2.88;;
10645;SDS011;5371;49.782;9.932;2022-09-14T11:11:37;3.17;;;2.97;;
10645;SDS011;5371;49.782;9.932;2022-09-14T11:14:14;3.63;;;3.33;;
10645;SDS011;5371;49.782;9.932;2022-09-14T11:17:03;4.38;;;3.97;;
10645;SDS011;5371;49.782;9.932;2022-09-14T11:19:53;3.95;;;3.65;;
10645;SDS011;5371;49.782;9.932;2022-09-14T11:22:36;4.97;;;4.20;;
10645;SDS011;5371;49.782;9.932;2022-09-14T11:25:09;5.88;;;4.47;;
10645;SDS011;5371;49.782;9.932;2022-09-14T11:27:41;5.43;;;4.50;;
10645;SDS011;5371;49.782;9.932;2022-09-14T11:30:13;4.88;;;4.40;;
10645;SDS011;5371;49.782;9.932;2022-09-14T11:32:43;5.40;;;4.90;;
10645;SDS011;5371;49.782;9.932;2022-09-14T11:35:16;5.75;;;5.03;;
10645;SDS011;5371;49.782;9.932;2022-09-14T11:37:49;5.55;;;4.78;;
10645;SDS011;5371;49.782;9.932;2022-09-14T11:40:21;5.10;;;4.70;;
10645;SDS011;5371;49.782;9.932;2022-09-14T11:42:55;5.30;;;4.80;;
10645;SDS011;5371;49.782;9.932;2022-09-14T11:45:27;5.85;;;5.00;;
10645;SDS011;5371;49.782;9.932;2022-09-14T11:48:00;5.45;;;4.95;;
10645;SDS011;5371;49.782;9.932;2022-09-14T11:50:33;5.70;;;5.20;;
10645;SDS011;5371;49.782;9.932;2022-09-14T11:53:08;6.97;;;5.43;;
10645;SDS011;5371;49.782;9.932;2022-09-14T11:55:40;6.25;;;5.65;;
10645;SDS011;5371;49.782;9.932;2022-09-14T11:58:15;5.97;;;5.47;;
10645;SDS011;5371;49.782;9.932;2022-09-14T12:00:58;6.07;;;5.57;;
10645;SDS011;5371;49.782;9.932;2022-09-14T12:06:41;6.30;;;5.72;;
10645;SDS011;5371;49.782;9.932;2022-09-14T12:09:36;5.43;;;4.93;;
10645;SDS011;5371;49.782;9.932;2022-09-14T12:12:25;5.95;;;5.35;;
10645;SDS011;5371;49.782;9.932;2022-09-14T12:14:57;6.60;;;5.90;;
10645;SDS011;5371;49.782;9.932;2022-09-14T12:17:25;5.65;;;5.13;;
10645;SDS011;5371;49.782;9.932;2022-09-14T12:19:58;5.50;;;5.00;;
10645;SDS011;5371;49.782;9.932;2022-09-14T12:22:40;5.68;;;5.00;;
10645;SDS011;5371;49.782;9.932;2022-09-14T12:25:14;8.15;;;5.10;;
10645;SDS011;5371;49.782;9.932;2022-09-14T12:27:43;6.30;;;5.45;;
10645;SDS011;5371;49.782;9.932;2022-09-14T12:39:28;5.82;;;5.18;;
10645;SDS011;5371;49.782;9.932;2022-09-14T12:42:02;6.28;;;5.68;;
10645;SDS011;5371;49.782;9.932;2022-09-14T12:44:49;8.23;;;6.25;;
10645;SDS011;5371;49.782;9.932;2022-09-14T12:50:24;9.13;;;6.30;;
10645;SDS011;5371;49.782;9.932;2022-09-14T12:53:03;6.68;;;5.95;;
10645;SDS011;5371;49.782;9.932;2022-09-14T12:55:50;9.85;;;5.82;;
10645;SDS011;5371;49.782;9.932;2022-09-14T12:58:35;7.53;;;6.22;;
10645;SDS011;5371;49.782;9.932;2022-09-14T13:01:29;6.40;;;5.90;;
10645;SDS011;5371;49.782;9.932;2022-09-14T13:04:03;6.82;;;6.22;;
10645;SDS011;5371;49.782;9.932;2022-09-14T13:06:38;8.75;;;6.18;;
10645;SDS011;5371;49.782;9.932;2022-09-14T13:09:11;7.32;;;6.25;;
10645;SDS011;5371;49.782;9.932;2022-09-14T13:11:43;6.55;;;6.03;;
10645;SDS011;5371;49.782;9.932;2022-09-14T13:14:18;6.63;;;6.03;;
10645;SDS011;5371;49.782;9.932;2022-09-14T13:16:46;8.20;;;6.72;;
10645;SDS011;5371;49.782;9.932;2022-09-14T13:19:18;6.97;;;6.28;;
10645;SDS011;5371;49.782;9.932;2022-09-14T13:21:47;6.68;;;5.93;;
10645;SDS011;5371;49.782;9.932;2022-09-14T13:24:18;7.13;;;6.45;;
10645;SDS011;5371;49.782;9.932;2022-09-14T13:26:51;8.45;;;6.88;;
10645;SDS011;5371;49.782;9.932;2022-09-14T13:29:21;8.18;;;7.05;;
10645;SDS011;5371;49.782;9.932;2022-09-14T13:31:50;8.85;;;7.60;;
10645;SDS011;5371;49.782;9.932;2022-09-14T13:34:19;7.72;;;6.88;;
10645;SDS011;5371;49.782;9.932;2022-09-14T13:36:48;7.18;;;6.47;;
10645;SDS011;5371;49.782;9.932;2022-09-14T13:39:21;10.60;;;7.63;;
10645;SDS011;5371;49.782;9.932;2022-09-14T13:41:51;7.93;;;7.05;;
10645;SDS011;5371;49.782;9.932;2022-09-14T13:44:22;8.98;;;6.53;;
10645;SDS011;5371;49.782;9.932;2022-09-14T13:46:51;8.30;;;6.88;;
10645;SDS011;5371;49.782;9.932;2022-09-14T13:49:20;8.15;;;6.97;;
10645;SDS011;5371;49.782;9.932;2022-09-14T13:51:47;7.85;;;6.60;;
10645;SDS011;5371;49.782;9.932;2022-09-14T13:54:17;7.38;;;6.68;;
10645;SDS011;5371;49.782;9.932;2022-09-14T13:57:12;7.93;;;7.15;;
10645;SDS011;5371;49.782;9.932;2022-09-14T14:02:42;7.82;;;7.05;;
10645;SDS011;5371;49.782;9.932;2022-09-14T14:05:18;9.18;;;6.95;;
10645;SDS011;5371;49.782;9.932;2022-09-14T14:07:49;9.05;;;7.30;;
10645;SDS011;5371;49.782;9.932;2022-09-14T14:10:21;7.55;;;6.72;;
10645;SDS011;5371;49.782;9.932;2022-09-14T14:12:51;12.88;;;7.75;;
10645;SDS011;5371;49.782;9.932;2022-09-14T14:15:42;8.60;;;7.80;;
10645;SDS011;5371;49.782;9.932;2022-09-14T14:21:12;11.02;;;8.13;;
10645;SDS011;5371;49.782;9.932;2022-09-14T14:23:41;9.75;;;8.80;;
10645;SDS011;5371;49.782;9.932;2022-09-14T14:26:09;10.05;;;9.00;;
10645;SDS011;5371;49.782;9.932;2022-09-14T14:28:40;14.70;;;9.98;;
10645;SDS011;5371;49.782;9.932;2022-09-14T14:31:12;15.25;;;10.25;;
10645;SDS011;5371;49.782;9.932;2022-09-14T14:33:44;10.35;;;8.30;;
10645;SDS011;5371;49.782;9.932;2022-09-14T14:36:12;19.38;;;10.55;;
10645;SDS011;5371;49.782;9.932;2022-09-14T14:38:40;9.15;;;6.50;;
10645;SDS011;5371;49.782;9.932;2022-09-14T14:41:11;7.28;;;4.30;;
10645;SDS011;5371;49.782;9.932;2022-09-14T14:43:40;10.18;;;4.57;;
10645;SDS011;5371;49.782;9.932;2022-09-14T14:46:10;5.70;;;4.45;;
10645;SDS011;5371;49.782;9.932;2022-09-14T14:48:39;6.50;;;4.60;;
10645;SDS011;5371;49.782;9.932;2022-09-14T14:51:08;6.47;;;4.20;;
10645;SDS011;5371;49.782;9.932;2022-09-14T14:53:39;7.78;;;4.75;;
10645;SDS011;5371;49.782;9.932;2022-09-14T14:56:08;8.63;;;4.88;;
10645;SDS011;5371;49.782;9.932;2022-09-14T14:58:41;6.80;;;4.47;;
10645;SDS011;5371;49.782;9.932;2022-09-14T15:01:08;5.63;;;4.45;;
10645;SDS011;5371;49.782;9.932;2022-09-14T15:03:36;8.50;;;6.40;;
10645;SDS011;5371;49.782;9.932;2022-09-14T15:06:11;9.25;;;5.07;;
10645;SDS011;5371;49.782;9.932;2022-09-14T15:08:40;7.32;;;4.68;;
10645;SDS011;5371;49.782;9.932;2022-09-14T15:11:09;6.72;;;4.43;;
10645;SDS011;5371;49.782;9.932;2022-09-14T15:13:41;7.75;;;4.57;;
10645;SDS011;5371;49.782;9.932;2022-09-14T15:16:07;6.10;;;4.63;;
10645;SDS011;5371;49.782;9.932;2022-09-14T15:18:34;7.15;;;4.30;;
10645;SDS011;5371;49.782;9.932;2022-09-14T15:21:01;6.95;;;4.75;;
10645;SDS011;5371;49.782;9.932;2022-09-14T15:23:30;6.18;;;4.57;;
10645;SDS011;5371;49.782;9.932;2022-09-14T15:25:57;6.50;;;4.47;;
10645;SDS011;5371;49.782;9.932;2022-09-14T15:28:25;5.95;;;5.00;;
10645;SDS011;5371;49.782;9.932;2022-09-14T15:30:52;4.72;;;3.88;;
10645;SDS011;5371;49.782;9.932;2022-09-14T15:33:21;4.60;;;3.80;;
10645;SDS011;5371;49.782;9.932;2022-09-14T15:35:52;7.93;;;4.20;;
10645;SDS011;5371;49.782;9.932;2022-09-14T15:38:21;4.88;;;3.03;;
10645;SDS011;5371;49.782;9.932;2022-09-14T15:40:50;3.17;;;2.78;;
10645;SDS011;5371;49.782;9.932;2022-09-14T15:43:17;4.95;;;2.88;;
10645;SDS011;5371;49.782;9.932;2022-09-14T15:45:44;5.05;;;2.33;;